createdAt,value
2022-11-26T00:01:24.225Z,3.37
2022-11-26T00:03:53.582Z,2.90
2022-11-26T00:06:31.691Z,3.63
2022-11-26T00:08:59.382Z,3.20
2022-11-26T00:11:26.694Z,4.47
2022-11-26T00:13:54.039Z,7.17
2022-11-26T00:16:21.475Z,5.93
2022-11-26T00:18:48.832Z,5.00
2022-11-26T00:21:21.839Z,4.90
2022-11-26T00:23:49.292Z,5.13
2022-11-26T00:26:18.009Z,4.27
2022-11-26T00:29:01.284Z,4.80
2022-11-26T00:31:29.937Z,5.10
2022-11-26T00:33:57.402Z,5.07
2022-11-26T00:36:27.050Z,8.67
2022-11-26T00:38:56.235Z,9.83
2022-11-26T00:41:24.494Z,7.77
2022-11-26T00:43:52.819Z,6.50
2022-11-26T00:46:20.961Z,5.93
2022-11-26T00:48:48.849Z,5.77
2022-11-26T00:51:21.365Z,4.97
2022-11-26T00:53:48.912Z,4.53
2022-11-26T00:56:20.712Z,4.00
2022-11-26T00:58:49.015Z,3.57
2022-11-26T01:01:18.495Z,4.07
2022-11-26T01:03:46.121Z,4.07
2022-11-26T01:06:15.801Z,3.70
2022-11-26T01:08:43.136Z,4.00
2022-11-26T01:11:12.465Z,3.50
2022-11-26T01:13:39.746Z,3.77
2022-11-26T01:16:15.937Z,3.97
2022-11-26T01:18:43.227Z,4.03
2022-11-26T01:21:13.615Z,3.80
2022-11-26T01:23:40.880Z,3.53
2022-11-26T01:26:13.883Z,3.30
2022-11-26T01:28:41.265Z,3.43
2022-11-26T01:31:13.748Z,3.47
2022-11-26T01:33:41.097Z,3.60
2022-11-26T01:36:34.735Z,3.67
2022-11-26T01:39:05.231Z,2.80
2022-11-26T01:41:47.939Z,3.17
2022-11-26T01:44:21.062Z,3.03
2022-11-26T01:46:48.791Z,3.50
2022-11-26T01:49:24.670Z,3.40
2022-11-26T01:52:01.291Z,3.40
2022-11-26T01:54:29.136Z,2.87
2022-11-26T01:56:57.652Z,4.17
2022-11-26T01:59:24.935Z,3.57
2022-11-26T02:01:53.377Z,3.40
2022-11-26T02:04:41.026Z,3.73
2022-11-26T02:07:08.415Z,3.20
2022-11-26T02:09:36.018Z,3.77
2022-11-26T02:12:03.891Z,3.63
2022-11-26T02:14:33.057Z,4.07
2022-11-26T02:17:00.520Z,3.77
2022-11-26T02:19:30.891Z,4.43
2022-11-26T02:22:13.704Z,3.97
2022-11-26T02:24:51.825Z,3.40
2022-11-26T02:27:40.134Z,3.40
2022-11-26T02:30:09.059Z,6.57
2022-11-26T02:32:51.773Z,4.13
2022-11-26T02:35:23.528Z,3.60
2022-11-26T02:37:58.948Z,3.10
2022-11-26T02:40:26.385Z,18.13
2022-11-26T02:42:53.916Z,5.97
2022-11-26T02:45:24.292Z,3.20
2022-11-26T02:47:53.928Z,2.77
2022-11-26T02:50:23.752Z,2.33
2022-11-26T02:52:51.772Z,2.40
2022-11-26T02:55:20.497Z,2.77
2022-11-26T02:57:49.551Z,2.80
2022-11-26T03:00:17.707Z,2.63
2022-11-26T03:03:03.501Z,3.03
2022-11-26T03:05:35.448Z,2.77
2022-11-26T03:08:04.749Z,3.00
2022-11-26T03:10:32.528Z,2.93
2022-11-26T03:13:00.194Z,2.97
2022-11-26T03:15:27.605Z,3.50
2022-11-26T03:17:54.913Z,3.13
2022-11-26T03:20:22.200Z,3.27
2022-11-26T03:22:49.610Z,3.67
2022-11-26T03:25:16.912Z,3.03
2022-11-26T03:27:44.249Z,3.60
2022-11-26T03:30:11.701Z,3.10
2022-11-26T03:32:39.051Z,3.20
2022-11-26T03:35:06.825Z,3.23
2022-11-26T03:37:34.242Z,2.90
2022-11-26T03:40:01.493Z,2.53
2022-11-26T03:42:28.913Z,2.20
2022-11-26T03:44:56.575Z,2.60
2022-11-26T03:47:23.876Z,2.30
2022-11-26T03:49:52.293Z,2.30
2022-11-26T03:52:20.441Z,2.10
2022-11-26T03:54:47.956Z,2.10
2022-11-26T03:57:15.486Z,2.47
2022-11-26T03:59:42.743Z,1.90
2022-11-26T04:02:10.038Z,1.90
2022-11-26T04:04:37.700Z,1.87
2022-11-26T04:07:05.530Z,2.17
2022-11-26T04:09:32.893Z,2.10
2022-11-26T04:12:00.274Z,1.87
2022-11-26T04:14:27.639Z,2.40
2022-11-26T04:16:55.022Z,1.90
2022-11-26T04:19:22.318Z,2.50
2022-11-26T04:21:49.770Z,1.90
2022-11-26T04:24:17.068Z,1.97
2022-11-26T04:26:44.307Z,2.03
2022-11-26T04:29:11.713Z,2.13
2022-11-26T04:31:39.067Z,2.50
2022-11-26T04:34:06.413Z,2.37
2022-11-26T04:36:33.724Z,2.60
2022-11-26T04:39:00.961Z,2.67
2022-11-26T04:41:28.281Z,2.70
2022-11-26T04:43:55.530Z,10.33
2022-11-26T04:46:22.907Z,6.50
2022-11-26T04:48:50.325Z,2.87
2022-11-26T04:51:17.566Z,3.20
2022-11-26T04:53:44.879Z,2.90
2022-11-26T04:56:12.438Z,2.87
2022-11-26T04:58:39.828Z,3.03
2022-11-26T05:01:07.155Z,2.77
2022-11-26T05:03:36.444Z,3.10
2022-11-26T05:06:04.140Z,3.10
2022-11-26T05:08:31.388Z,2.70
2022-11-26T05:11:01.031Z,2.90
2022-11-26T05:13:28.310Z,3.10
2022-11-26T05:15:55.719Z,3.30
2022-11-26T05:18:23.095Z,2.90
2022-11-26T05:20:50.403Z,3.00
2022-11-26T05:23:17.790Z,3.10
2022-11-26T05:25:45.169Z,3.23
2022-11-26T05:28:12.490Z,2.83
2022-11-26T05:30:39.813Z,3.30
2022-11-26T05:33:07.089Z,3.03
2022-11-26T05:35:34.366Z,2.90
2022-11-26T05:38:01.584Z,3.33
2022-11-26T05:40:29.124Z,3.63
2022-11-26T05:42:56.409Z,3.17
2022-11-26T05:45:23.695Z,3.70
2022-11-26T05:47:51.030Z,3.10
2022-11-26T05:50:18.344Z,3.00
2022-11-26T05:52:45.714Z,3.27
2022-11-26T05:55:13.057Z,3.40
2022-11-26T05:57:40.315Z,3.60
2022-11-26T06:00:08.162Z,4.43
2022-11-26T06:02:35.543Z,4.03
2022-11-26T06:05:02.933Z,4.07
2022-11-26T06:07:30.214Z,3.50
2022-11-26T06:09:57.521Z,4.17
2022-11-26T06:12:24.846Z,4.07
2022-11-26T06:14:52.085Z,3.90
2022-11-26T06:17:19.344Z,4.00
2022-11-26T06:19:46.622Z,3.57
2022-11-26T06:22:13.899Z,3.70
2022-11-26T06:24:41.152Z,4.10
2022-11-26T06:27:08.637Z,4.23
2022-11-26T06:29:36.043Z,4.37
2022-11-26T06:32:03.421Z,4.00
2022-11-26T06:34:30.686Z,3.93
2022-11-26T06:36:57.929Z,6.00
2022-11-26T06:39:25.219Z,4.37
2022-11-26T06:41:53.053Z,3.93
2022-11-26T06:44:20.354Z,3.80
2022-11-26T06:46:47.696Z,3.87
2022-11-26T06:49:15.311Z,3.37
2022-11-26T06:51:42.790Z,6.70
2022-11-26T06:54:09.996Z,43.23
2022-11-26T06:56:37.227Z,32.90
2022-11-26T06:59:04.564Z,21.33
2022-11-26T07:01:32.110Z,8.47
2022-11-26T07:03:59.556Z,5.47
2022-11-26T07:06:28.620Z,4.63
2022-11-26T07:08:57.220Z,3.10
2022-11-26T07:11:25.025Z,4.60
2022-11-26T07:13:52.493Z,5.10
2022-11-26T07:16:19.974Z,6.70
2022-11-26T07:18:51.213Z,4.43
2022-11-26T07:21:19.237Z,3.43
2022-11-26T07:23:47.304Z,3.30
2022-11-26T07:26:15.311Z,3.20
2022-11-26T07:28:42.695Z,2.77
2022-11-26T07:31:16.087Z,3.17
2022-11-26T07:33:44.355Z,3.13
2022-11-26T07:36:16.282Z,3.40
2022-11-26T07:38:43.561Z,3.10
2022-11-26T07:41:12.399Z,3.37
2022-11-26T07:43:40.922Z,3.80
2022-11-26T07:46:09.150Z,3.37
2022-11-26T07:48:39.241Z,4.30
2022-11-26T07:51:07.149Z,3.90
2022-11-26T07:53:35.688Z,3.20
2022-11-26T07:56:06.495Z,3.60
2022-11-26T07:58:33.960Z,4.00
2022-11-26T08:01:12.148Z,4.20
2022-11-26T08:03:43.843Z,3.60
2022-11-26T08:06:13.138Z,4.20
2022-11-26T08:08:40.478Z,4.70
2022-11-26T08:11:17.034Z,4.50
2022-11-26T08:13:44.777Z,4.27
2022-11-26T08:16:12.685Z,3.33
2022-11-26T08:18:40.368Z,3.67
2022-11-26T08:21:08.052Z,2.70
2022-11-26T08:23:35.861Z,2.53
2022-11-26T08:26:22.567Z,2.63
2022-11-26T08:28:51.580Z,2.77
2022-11-26T08:31:19.165Z,2.40
2022-11-26T08:33:46.886Z,2.40
2022-11-26T08:36:14.179Z,2.37
2022-11-26T08:38:41.518Z,2.40
2022-11-26T08:41:12.876Z,1.93
2022-11-26T08:46:28.465Z,2.40
2022-11-26T08:48:56.567Z,2.30
2022-11-26T08:51:24.677Z,2.20
2022-11-26T08:53:51.984Z,2.17
2022-11-26T08:56:19.441Z,2.20
2022-11-26T08:58:48.885Z,2.60
2022-11-26T09:01:24.892Z,2.50
2022-11-26T09:03:53.481Z,2.20
2022-11-26T09:06:22.113Z,2.27
2022-11-26T09:09:08.828Z,1.73
2022-11-26T09:11:38.314Z,2.17
2022-11-26T09:14:05.824Z,2.17
2022-11-26T09:16:33.553Z,2.53
2022-11-26T09:19:01.486Z,2.67
2022-11-26T09:21:29.137Z,2.83
2022-11-26T09:23:56.418Z,2.63
2022-11-26T09:26:25.298Z,3.13
2022-11-26T09:28:52.998Z,2.60
2022-11-26T09:31:20.465Z,2.83
2022-11-26T09:33:48.216Z,2.80
2022-11-26T09:36:17.372Z,3.00
2022-11-26T09:38:45.877Z,2.20
2022-11-26T09:41:13.158Z,3.23
2022-11-26T09:44:02.228Z,3.20
2022-11-26T09:47:09.985Z,4.13
2022-11-26T09:49:34.502Z,3.77
2022-11-26T09:52:01.754Z,5.10
2022-11-26T09:54:30.583Z,2.20
2022-11-26T09:57:18.306Z,2.00
2022-11-26T09:59:46.934Z,1.93
2022-11-26T10:02:21.181Z,1.70
2022-11-26T10:04:49.540Z,1.80
2022-11-26T10:07:19.934Z,1.90
2022-11-26T10:10:06.261Z,1.80
2022-11-26T10:13:17.397Z,1.90
2022-11-26T10:15:42.012Z,1.50
2022-11-26T10:18:20.928Z,1.50
2022-11-26T10:21:03.758Z,2.07
2022-11-26T10:23:31.191Z,2.30
2022-11-26T10:26:19.024Z,1.70
2022-11-26T10:28:47.632Z,1.40
2022-11-26T10:31:25.431Z,1.60
2022-11-26T10:34:02.346Z,1.50
2022-11-26T10:36:43.030Z,1.80
2022-11-26T10:39:14.123Z,1.50
2022-11-26T10:41:41.503Z,1.90
2022-11-26T10:44:27.843Z,1.50
2022-11-26T10:46:55.248Z,1.70
2022-11-26T10:49:23.358Z,1.37
2022-11-26T10:51:51.859Z,1.60
2022-11-26T10:54:30.607Z,1.43
2022-11-26T10:57:02.247Z,1.53
2022-11-26T10:59:36.288Z,1.63
2022-11-26T11:02:06.461Z,1.37
2022-11-26T11:04:37.475Z,1.73
2022-11-26T11:07:10.292Z,1.63
2022-11-26T11:09:42.236Z,1.53
2022-11-26T11:12:12.589Z,1.43
2022-11-26T11:14:42.924Z,1.50
2022-11-26T11:17:25.400Z,1.17
2022-11-26T11:19:54.684Z,1.40
2022-11-26T11:22:22.735Z,1.40
2022-11-26T11:24:50.236Z,1.30
2022-11-26T11:27:25.558Z,1.27
2022-11-26T11:29:53.530Z,1.40
2022-11-26T11:32:34.347Z,1.67
2022-11-26T11:35:20.516Z,1.77
2022-11-26T11:37:49.556Z,1.70
2022-11-26T11:40:20.248Z,1.40
2022-11-26T11:42:51.996Z,1.53
2022-11-26T11:45:23.549Z,1.50
2022-11-26T11:47:57.296Z,1.90
2022-11-26T11:50:31.450Z,1.40
2022-11-26T11:53:04.974Z,1.60
2022-11-26T11:55:52.203Z,1.50
2022-11-26T11:58:27.709Z,2.20
2022-11-26T12:01:13.490Z,1.73
2022-11-26T12:03:54.105Z,1.37
2022-11-26T12:06:40.462Z,1.50
2022-11-26T12:09:22.771Z,1.17
2022-11-26T12:11:56.172Z,1.63
2022-11-26T12:14:26.029Z,1.93
2022-11-26T12:16:58.977Z,1.70
2022-11-26T12:19:39.951Z,1.50
2022-11-26T12:22:14.417Z,1.43
2022-11-26T12:24:58.424Z,1.23
2022-11-26T12:27:34.319Z,1.90
2022-11-26T12:30:15.772Z,1.40
2022-11-26T12:32:55.399Z,1.30
2022-11-26T12:35:31.079Z,1.30
2022-11-26T12:38:00.424Z,1.50
2022-11-26T12:40:36.850Z,1.17
2022-11-26T12:43:13.517Z,1.30
2022-11-26T12:45:49.542Z,1.53
2022-11-26T12:48:28.081Z,1.40
2022-11-26T12:51:01.692Z,1.40
2022-11-26T12:53:34.988Z,1.70
2022-11-26T12:56:17.248Z,2.10
2022-11-26T12:58:47.786Z,2.00
2022-11-26T13:01:15.275Z,2.77
2022-11-26T13:03:42.716Z,2.87
2022-11-26T13:06:33.157Z,2.50
2022-11-26T13:09:15.331Z,2.03
2022-11-26T13:11:50.253Z,1.50
2022-11-26T13:14:35.356Z,2.17
2022-11-26T13:17:16.908Z,1.80
2022-11-26T13:19:50.381Z,1.80
2022-11-26T13:22:35.530Z,2.03
2022-11-26T13:25:21.266Z,1.30
2022-11-26T13:27:54.688Z,1.20
2022-11-26T13:30:25.425Z,1.67
2022-11-26T13:33:00.196Z,1.60
2022-11-26T13:35:36.857Z,2.00
2022-11-26T13:38:19.469Z,1.40
2022-11-26T13:40:51.668Z,1.40
2022-11-26T13:43:40.849Z,1.70
2022-11-26T13:46:22.397Z,2.10
2022-11-26T13:49:08.656Z,1.63
2022-11-26T13:51:43.853Z,1.83
2022-11-26T13:54:20.466Z,1.40
2022-11-26T13:56:50.110Z,1.77
2022-11-26T13:59:28.573Z,1.60
2022-11-26T14:01:56.517Z,1.70
2022-11-26T14:04:23.918Z,4.53
2022-11-26T14:07:07.381Z,3.00
2022-11-26T14:09:47.125Z,1.60
2022-11-26T14:12:15.484Z,1.43
2022-11-26T14:14:43.781Z,1.50
2022-11-26T14:17:12.167Z,1.97
2022-11-26T14:19:42.817Z,1.80
2022-11-26T14:22:10.603Z,1.40
2022-11-26T14:25:07.159Z,1.80
2022-11-26T14:27:34.670Z,1.90
2022-11-26T14:30:07.961Z,2.07
2022-11-26T14:32:45.369Z,2.00
2022-11-26T14:35:34.725Z,3.60
2022-11-26T14:38:03.333Z,10.97
2022-11-26T14:40:32.204Z,9.27
2022-11-26T14:43:09.996Z,4.73
2022-11-26T14:45:37.792Z,3.57
2022-11-26T14:48:05.633Z,1.83
2022-11-26T14:50:34.396Z,1.80
2022-11-26T14:53:05.967Z,2.00
2022-11-26T14:55:33.734Z,1.60
2022-11-26T14:58:04.874Z,1.60
2022-11-26T15:00:35.335Z,2.10
2022-11-26T15:03:04.336Z,3.27
2022-11-26T15:05:40.694Z,3.87
2022-11-26T15:08:20.894Z,4.10
2022-11-26T15:11:02.529Z,4.33
2022-11-26T15:13:29.871Z,5.20
2022-11-26T15:15:59.015Z,4.93
2022-11-26T15:18:30.949Z,6.33
2022-11-26T15:20:59.249Z,3.50
2022-11-26T15:23:30.619Z,5.27
2022-11-26T15:25:58.172Z,4.27
2022-11-26T15:28:25.456Z,3.60
2022-11-26T15:30:55.973Z,5.17
2022-11-26T15:33:23.708Z,8.10
2022-11-26T15:35:57.907Z,7.60
2022-11-26T15:38:26.793Z,7.83
2022-11-26T15:41:02.007Z,7.60
2022-11-26T15:43:44.771Z,9.00
2022-11-26T15:46:21.243Z,8.30
2022-11-26T15:48:56.295Z,8.10
2022-11-26T15:51:23.555Z,9.80
2022-11-26T15:53:51.478Z,9.50
2022-11-26T15:56:20.205Z,10.93
2022-11-26T15:58:49.007Z,9.43
2022-11-26T16:01:20.734Z,10.97
2022-11-26T16:03:55.148Z,12.10
2022-11-26T16:06:31.791Z,13.63
2022-11-26T16:09:00.014Z,16.27
2022-11-26T16:11:27.252Z,11.90
2022-11-26T16:13:54.661Z,13.87
2022-11-26T16:16:24.054Z,16.37
2022-11-26T16:18:59.358Z,10.60
2022-11-26T16:21:29.105Z,19.87
2022-11-26T16:24:00.216Z,88.17
2022-11-26T16:26:28.070Z,60.73
2022-11-26T16:28:55.833Z,54.87
2022-11-26T16:31:23.384Z,42.83
2022-11-26T16:33:50.774Z,26.07
2022-11-26T16:36:22.813Z,21.80
2022-11-26T16:38:50.409Z,20.10
2022-11-26T16:41:18.752Z,21.80
2022-11-26T16:43:46.039Z,21.30
2022-11-26T16:46:17.867Z,15.50
2022-11-26T16:48:46.248Z,23.63
2022-11-26T16:51:13.567Z,25.17
2022-11-26T16:53:41.193Z,23.23
2022-11-26T16:58:43.452Z,25.00
2022-11-26T17:01:10.903Z,24.23
2022-11-26T17:03:38.434Z,23.67
2022-11-26T17:06:18.299Z,20.33
2022-11-26T17:08:49.767Z,24.70
2022-11-26T17:11:17.377Z,25.57
2022-11-26T17:13:44.840Z,24.73
2022-11-26T17:16:16.877Z,26.47
2022-11-26T17:18:44.580Z,24.50
2022-11-26T17:21:12.030Z,22.17
2022-11-26T17:23:39.350Z,20.27
2022-11-26T17:26:18.184Z,17.57
2022-11-26T17:28:45.726Z,17.63
2022-11-26T17:31:13.082Z,16.00
2022-11-26T17:33:41.199Z,15.50
2022-11-26T17:36:16.195Z,13.40
2022-11-26T17:38:44.517Z,13.33
2022-11-26T17:41:12.060Z,13.27
2022-11-26T17:43:39.674Z,11.93
2022-11-26T17:46:13.663Z,12.30
2022-11-26T17:48:40.931Z,11.07
2022-11-26T17:51:08.252Z,11.63
2022-11-26T17:53:35.638Z,13.77
2022-11-26T17:56:03.106Z,20.97
2022-11-26T17:58:30.575Z,27.53
2022-11-26T18:00:57.892Z,32.63
2022-11-26T18:03:25.285Z,27.00
2022-11-26T18:05:52.823Z,28.93
2022-11-26T18:08:20.109Z,26.27
2022-11-26T18:10:47.418Z,26.40
2022-11-26T18:13:14.993Z,26.63
2022-11-26T18:15:42.409Z,31.63
2022-11-26T18:18:09.737Z,30.17
2022-11-26T18:20:37.131Z,32.17
2022-11-26T18:23:05.315Z,41.13
2022-11-26T18:25:34.883Z,41.40
2022-11-26T18:28:02.192Z,35.10
2022-11-26T18:30:30.645Z,35.50
2022-11-26T18:32:58.131Z,32.03
2022-11-26T18:35:25.422Z,32.33
2022-11-26T18:37:52.839Z,31.17
2022-11-26T18:40:20.445Z,32.27
2022-11-26T18:42:51.591Z,32.30
2022-11-26T18:45:18.847Z,30.20
2022-11-26T18:47:46.148Z,28.67
2022-11-26T18:50:14.790Z,25.53
2022-11-26T18:52:42.155Z,20.30
2022-11-26T18:55:10.146Z,20.50
2022-11-26T18:57:37.794Z,18.73
2022-11-26T19:00:05.922Z,17.77
2022-11-26T19:02:34.516Z,16.73
2022-11-26T19:05:02.521Z,16.70
2022-11-26T19:07:31.057Z,19.17
2022-11-26T19:10:00.016Z,20.70
2022-11-26T19:12:27.263Z,21.60
2022-11-26T19:14:54.614Z,21.70
2022-11-26T19:17:21.913Z,13.37
2022-11-26T19:19:49.201Z,18.50
2022-11-26T19:22:16.733Z,22.30
2022-11-26T19:24:43.970Z,21.73
2022-11-26T19:27:11.221Z,18.80
2022-11-26T19:29:38.908Z,18.83
2022-11-26T19:32:06.672Z,21.57
2022-11-26T19:34:33.931Z,16.83
2022-11-26T19:37:01.251Z,9.87
2022-11-26T19:39:28.596Z,13.27
2022-11-26T19:41:56.025Z,13.20
2022-11-26T19:44:23.502Z,16.87
2022-11-26T19:46:50.778Z,13.37
2022-11-26T19:49:18.236Z,10.40
2022-11-26T19:51:45.789Z,11.07
2022-11-26T19:54:13.194Z,10.50
2022-11-26T19:56:42.764Z,10.20
2022-11-26T19:59:10.190Z,11.00
2022-11-26T20:01:37.695Z,12.53
2022-11-26T20:04:06.180Z,13.10
2022-11-26T20:06:34.404Z,14.20
2022-11-26T20:09:01.876Z,13.40
2022-11-26T20:11:30.021Z,14.60
2022-11-26T20:13:58.100Z,16.17
2022-11-26T20:16:26.746Z,17.17
2022-11-26T20:18:54.685Z,18.00
2022-11-26T20:21:25.611Z,20.50
2022-11-26T20:23:53.591Z,20.33
2022-11-26T20:26:25.452Z,19.63
2022-11-26T20:28:53.802Z,18.07
2022-11-26T20:31:23.981Z,15.10
2022-11-26T20:33:52.953Z,11.03
2022-11-26T20:36:21.024Z,7.57
2022-11-26T20:38:51.916Z,6.33
2022-11-26T20:41:19.346Z,8.20
2022-11-26T20:43:52.481Z,8.77
2022-11-26T20:46:24.075Z,14.27
2022-11-26T20:48:51.744Z,17.67
2022-11-26T20:51:22.006Z,20.50
2022-11-26T20:53:52.441Z,23.13
2022-11-26T20:56:21.484Z,23.07
2022-11-26T20:58:48.954Z,18.73
2022-11-26T21:01:17.619Z,20.53
2022-11-26T21:03:46.284Z,15.83
2022-11-26T21:06:14.403Z,18.17
2022-11-26T21:08:42.468Z,17.63
2022-11-26T21:11:10.525Z,17.33
2022-11-26T21:13:39.098Z,14.90
2022-11-26T21:16:09.546Z,10.90
2022-11-26T21:18:36.797Z,8.83
2022-11-26T21:21:11.231Z,9.37
2022-11-26T21:23:39.462Z,10.67
2022-11-26T21:26:10.996Z,8.00
2022-11-26T21:28:38.775Z,6.87
2022-11-26T21:31:07.337Z,5.47
2022-11-26T21:33:35.080Z,4.00
2022-11-26T21:36:09.745Z,3.53
2022-11-26T21:38:37.307Z,3.27
2022-11-26T21:41:05.545Z,4.20
2022-11-26T21:43:32.953Z,4.47
2022-11-26T21:46:04.200Z,6.43
2022-11-26T21:48:31.882Z,12.73
2022-11-26T21:50:59.652Z,16.93
2022-11-26T21:53:27.032Z,13.13
2022-11-26T21:55:54.379Z,14.80
2022-11-26T21:58:21.654Z,11.00
2022-11-26T22:00:48.999Z,8.57
2022-11-26T22:03:16.447Z,10.30
2022-11-26T22:05:43.698Z,15.77
2022-11-26T22:08:11.169Z,19.67
2022-11-26T22:10:38.502Z,21.50
2022-11-26T22:13:07.794Z,21.30
2022-11-26T22:15:35.171Z,19.90
2022-11-26T22:18:02.804Z,20.80
2022-11-26T22:20:30.348Z,20.03
2022-11-26T22:22:58.524Z,22.27
2022-11-26T22:25:25.919Z,17.23
2022-11-26T22:27:53.190Z,16.30
2022-11-26T22:30:20.771Z,14.73
2022-11-26T22:32:48.244Z,13.87
2022-11-26T22:35:15.690Z,15.33
2022-11-26T22:37:43.231Z,14.20
2022-11-26T22:40:10.770Z,16.77
2022-11-26T22:42:38.115Z,16.93
2022-11-26T22:45:05.593Z,15.77
2022-11-26T22:47:33.053Z,15.10
2022-11-26T22:50:00.327Z,13.63
2022-11-26T22:52:27.587Z,12.60
2022-11-26T22:54:55.104Z,11.47
2022-11-26T22:57:25.317Z,11.13
2022-11-26T22:59:54.346Z,10.63
2022-11-26T23:02:21.625Z,12.67
2022-11-26T23:04:49.180Z,10.97
2022-11-26T23:07:16.465Z,12.20
2022-11-26T23:09:46.755Z,10.90
2022-11-26T23:12:14.430Z,10.63
2022-11-26T23:14:41.936Z,12.77
2022-11-26T23:17:09.205Z,12.23
2022-11-26T23:19:36.445Z,12.70
2022-11-26T23:22:03.716Z,12.13
2022-11-26T23:24:31.075Z,10.83
2022-11-26T23:26:58.556Z,13.43
2022-11-26T23:29:25.790Z,13.37
2022-11-26T23:31:53.564Z,13.07
2022-11-26T23:34:20.807Z,14.03
2022-11-26T23:36:48.080Z,13.97
2022-11-26T23:39:15.635Z,14.37
2022-11-26T23:41:44.009Z,15.30
2022-11-26T23:44:11.508Z,15.10
2022-11-26T23:46:38.975Z,13.80
2022-11-26T23:49:06.344Z,12.87
2022-11-26T23:51:34.137Z,12.70
2022-11-26T23:54:01.662Z,14.73
2022-11-26T23:56:30.268Z,15.03
2022-11-26T23:58:59.059Z,18.27
